Terminal Aerodrome Forecast
Issued by NWS

Home | Current Version | Previous Version | Text Only | Print | Product List | Glossary Off
Versions: 1 2 3 4 5 6 7 8 9 10 11 12 13 14 15 16 17 18

000
FTUS43 KTOP 191515 AAB
TAFFOE
TAF AMD
KFOE 191515Z 1915/2012 16006KT 4SM BR SKC
     FM191600 16008KT 6SM BR FEW012
     FM191700 16011KT P6SM BKN012
     FM192000 17010KT P6SM BKN025
     FM200200 16008KT 5SM BR OVC015
     FM200800 16009KT 4SM BR VCSH OVC009=

USA.gov is the U.S. government's official web portal to all federal, state and local government web resources and services.